sensor_id;sensor_type;location;lat;lon;timestamp;temperature;humidity
24614;DHT22;12760;46.296;25.290;2022-10-28T00:01:22;10.00;99.90
24614;DHT22;12760;46.296;25.290;2022-10-28T00:03:55;9.90;99.90
24614;DHT22;12760;46.296;25.290;2022-10-28T00:06:32;9.90;99.90
24614;DHT22;12760;46.296;25.290;2022-10-28T00:08:58;10.00;99.90
24614;DHT22;12760;46.296;25.290;2022-10-28T00:11:30;10.00;99.90
24614;DHT22;12760;46.296;25.290;2022-10-28T00:13:58;10.00;99.90
24614;DHT22;12760;46.296;25.290;2022-10-28T00:16:27;10.00;99.90
24614;DHT22;12760;46.296;25.290;2022-10-28T00:18:54;9.90;99.90
24614;DHT22;12760;46.296;25.290;2022-10-28T00:21:23;10.00;99.90
24614;DHT22;12760;46.296;25.290;2022-10-28T00:23:50;10.00;99.90
24614;DHT22;12760;46.296;25.290;2022-10-28T00:26:21;10.00;99.90
24614;DHT22;12760;46.296;25.290;2022-10-28T00:29:10;9.90;99.90
24614;DHT22;12760;46.296;25.290;2022-10-28T00:31:36;9.80;99.90
24614;DHT22;12760;46.296;25.290;2022-10-28T00:34:04;9.70;99.90
24614;DHT22;12760;46.296;25.290;2022-10-28T00:36:33;9.70;99.90
24614;DHT22;12760;46.296;25.290;2022-10-28T00:39:00;9.70;99.90
24614;DHT22;12760;46.296;25.290;2022-10-28T00:41:29;9.60;99.90
24614;DHT22;12760;46.296;25.290;2022-10-28T00:46:46;9.60;99.90
24614;DHT22;12760;46.296;25.290;2022-10-28T00:49:23;9.70;99.90
24614;DHT22;12760;46.296;25.290;2022-10-28T00:51:59;9.70;99.90
24614;DHT22;12760;46.296;25.290;2022-10-28T00:54:26;9.80;99.90
24614;DHT22;12760;46.296;25.290;2022-10-28T00:56:55;9.80;99.90
24614;DHT22;12760;46.296;25.290;2022-10-28T00:59:25;9.70;99.90
24614;DHT22;12760;46.296;25.290;2022-10-28T01:01:51;9.60;99.90
24614;DHT22;12760;46.296;25.290;2022-10-28T01:04:18;9.60;99.90
24614;DHT22;12760;46.296;25.290;2022-10-28T01:06:45;9.50;99.90
24614;DHT22;12760;46.296;25.290;2022-10-28T01:09:11;9.40;99.90
24614;DHT22;12760;46.296;25.290;2022-10-28T01:14:41;9.30;99.90
24614;DHT22;12760;46.296;25.290;2022-10-28T01:17:19;9.40;99.90
24614;DHT22;12760;46.296;25.290;2022-10-28T01:20:16;9.40;99.90
24614;DHT22;12760;46.296;25.290;2022-10-28T01:41:50;9.30;99.90
24614;DHT22;12760;46.296;25.290;2022-10-28T01:49:28;9.10;99.90
24614;DHT22;12760;46.296;25.290;2022-10-28T01:52:00;9.10;99.90
24614;DHT22;12760;46.296;25.290;2022-10-28T01:54:30;9.10;99.90
24614;DHT22;12760;46.296;25.290;2022-10-28T01:56:57;9.20;99.90
24614;DHT22;12760;46.296;25.290;2022-10-28T01:59:27;9.20;99.90
24614;DHT22;12760;46.296;25.290;2022-10-28T02:01:54;9.30;99.90
24614;DHT22;12760;46.296;25.290;2022-10-28T02:04:20;9.30;99.90
24614;DHT22;12760;46.296;25.290;2022-10-28T02:06:49;9.30;99.90
24614;DHT22;12760;46.296;25.290;2022-10-28T02:09:24;9.30;99.90
24614;DHT22;12760;46.296;25.290;2022-10-28T02:17:25;9.40;99.90
24614;DHT22;12760;46.296;25.290;2022-10-28T02:20:12;9.40;99.90
24614;DHT22;12760;46.296;25.290;2022-10-28T02:22:56;9.30;99.90
24614;DHT22;12760;46.296;25.290;2022-10-28T02:25:29;9.30;99.90
24614;DHT22;12760;46.296;25.290;2022-10-28T02:28:08;9.30;99.90
24614;DHT22;12760;46.296;25.290;2022-10-28T02:30:47;9.30;99.90
24614;DHT22;12760;46.296;25.290;2022-10-28T02:33:18;9.40;99.90
24614;DHT22;12760;46.296;25.290;2022-10-28T02:35:52;9.40;99.90
24614;DHT22;12760;46.296;25.290;2022-10-28T02:38:25;9.30;99.90
24614;DHT22;12760;46.296;25.290;2022-10-28T02:40:55;9.30;99.90
24614;DHT22;12760;46.296;25.290;2022-10-28T02:43:25;9.30;99.90
24614;DHT22;12760;46.296;25.290;2022-10-28T02:45:56;9.20;99.90
24614;DHT22;12760;46.296;25.290;2022-10-28T02:48:30;9.10;99.90
24614;DHT22;12760;46.296;25.290;2022-10-28T02:51:06;9.10;99.90
24614;DHT22;12760;46.296;25.290;2022-10-28T02:53:44;9.10;99.90
24614;DHT22;12760;46.296;25.290;2022-10-28T02:56:12;9.10;99.90
24614;DHT22;12760;46.296;25.290;2022-10-28T02:58:40;9.00;99.90
24614;DHT22;12760;46.296;25.290;2022-10-28T03:01:06;9.10;99.90
24614;DHT22;12760;46.296;25.290;2022-10-28T03:03:32;9.00;99.90
24614;DHT22;12760;46.296;25.290;2022-10-28T03:05:58;9.10;99.90
24614;DHT22;12760;46.296;25.290;2022-10-28T03:08:24;9.10;99.90
24614;DHT22;12760;46.296;25.290;2022-10-28T03:10:50;9.10;99.90
24614;DHT22;12760;46.296;25.290;2022-10-28T03:13:15;9.10;99.90
24614;DHT22;12760;46.296;25.290;2022-10-28T03:15:41;9.00;99.90
24614;DHT22;12760;46.296;25.290;2022-10-28T03:18:07;9.00;99.90
24614;DHT22;12760;46.296;25.290;2022-10-28T03:20:33;9.00;99.90
24614;DHT22;12760;46.296;25.290;2022-10-28T03:22:59;9.00;99.90
24614;DHT22;12760;46.296;25.290;2022-10-28T03:25:25;9.00;99.90
24614;DHT22;12760;46.296;25.290;2022-10-28T03:27:50;8.90;99.90
24614;DHT22;12760;46.296;25.290;2022-10-28T03:30:16;8.80;99.90
24614;DHT22;12760;46.296;25.290;2022-10-28T03:32:43;8.80;99.90
24614;DHT22;12760;46.296;25.290;2022-10-28T03:35:09;8.80;99.90
24614;DHT22;12760;46.296;25.290;2022-10-28T03:37:34;8.80;99.90
24614;DHT22;12760;46.296;25.290;2022-10-28T03:40:01;8.70;99.90
24614;DHT22;12760;46.296;25.290;2022-10-28T03:42:28;8.80;99.90
24614;DHT22;12760;46.296;25.290;2022-10-28T03:44:53;8.80;99.90
24614;DHT22;12760;46.296;25.290;2022-10-28T03:47:19;8.90;99.90
24614;DHT22;12760;46.296;25.290;2022-10-28T03:49:45;8.90;99.90
24614;DHT22;12760;46.296;25.290;2022-10-28T03:52:11;8.80;99.90
24614;DHT22;12760;46.296;25.290;2022-10-28T03:54:36;8.70;99.90
24614;DHT22;12760;46.296;25.290;2022-10-28T03:57:02;8.70;99.90
24614;DHT22;12760;46.296;25.290;2022-10-28T03:59:28;8.70;99.90
24614;DHT22;12760;46.296;25.290;2022-10-28T04:01:53;8.70;99.90
24614;DHT22;12760;46.296;25.290;2022-10-28T04:04:19;8.70;99.90
24614;DHT22;12760;46.296;25.290;2022-10-28T04:06:45;8.70;99.90
24614;DHT22;12760;46.296;25.290;2022-10-28T04:09:10;8.60;99.90
24614;DHT22;12760;46.296;25.290;2022-10-28T04:11:36;8.60;99.90
24614;DHT22;12760;46.296;25.290;2022-10-28T04:14:02;8.60;99.90
24614;DHT22;12760;46.296;25.290;2022-10-28T04:16:27;8.60;99.90
24614;DHT22;12760;46.296;25.290;2022-10-28T04:18:53;8.60;99.90
24614;DHT22;12760;46.296;25.290;2022-10-28T04:21:19;8.60;99.90
24614;DHT22;12760;46.296;25.290;2022-10-28T04:23:44;8.50;99.90
24614;DHT22;12760;46.296;25.290;2022-10-28T04:26:10;8.40;99.90
24614;DHT22;12760;46.296;25.290;2022-10-28T04:28:36;8.40;99.90
24614;DHT22;12760;46.296;25.290;2022-10-28T04:31:02;8.40;99.90
24614;DHT22;12760;46.296;25.290;2022-10-28T04:33:28;8.30;99.90
24614;DHT22;12760;46.296;25.290;2022-10-28T04:35:53;8.20;99.90
24614;DHT22;12760;46.296;25.290;2022-10-28T04:38:19;8.20;99.90
24614;DHT22;12760;46.296;25.290;2022-10-28T04:40:48;8.20;99.90
24614;DHT22;12760;46.296;25.290;2022-10-28T04:43:15;8.10;99.90
24614;DHT22;12760;46.296;25.290;2022-10-28T04:45:41;8.20;99.90
24614;DHT22;12760;46.296;25.290;2022-10-28T04:48:08;8.30;99.90
24614;DHT22;12760;46.296;25.290;2022-10-28T04:50:34;8.30;99.90
24614;DHT22;12760;46.296;25.290;2022-10-28T04:53:00;8.20;99.90
24614;DHT22;12760;46.296;25.290;2022-10-28T04:55:26;8.20;99.90
24614;DHT22;12760;46.296;25.290;2022-10-28T04:57:59;8.20;99.90
24614;DHT22;12760;46.296;25.290;2022-10-28T05:00:26;8.10;99.90
24614;DHT22;12760;46.296;25.290;2022-10-28T05:02:53;8.10;99.90
24614;DHT22;12760;46.296;25.290;2022-10-28T05:05:19;8.10;99.90
24614;DHT22;12760;46.296;25.290;2022-10-28T05:07:45;8.10;99.90
24614;DHT22;12760;46.296;25.290;2022-10-28T05:10:11;8.00;99.90
24614;DHT22;12760;46.296;25.290;2022-10-28T05:12:45;8.10;99.90
24614;DHT22;12760;46.296;25.290;2022-10-28T05:15:12;8.10;99.90
24614;DHT22;12760;46.296;25.290;2022-10-28T05:17:42;8.10;99.90
24614;DHT22;12760;46.296;25.290;2022-10-28T05:20:09;8.10;99.90
24614;DHT22;12760;46.296;25.290;2022-10-28T05:22:36;8.10;99.90
24614;DHT22;12760;46.296;25.290;2022-10-28T05:25:03;8.10;99.90
24614;DHT22;12760;46.296;25.290;2022-10-28T05:27:28;8.00;99.90
24614;DHT22;12760;46.296;25.290;2022-10-28T05:29:54;8.00;99.90
24614;DHT22;12760;46.296;25.290;2022-10-28T05:32:20;8.10;99.90
24614;DHT22;12760;46.296;25.290;2022-10-28T05:34:45;8.10;99.90
24614;DHT22;12760;46.296;25.290;2022-10-28T05:37:11;8.10;99.90
24614;DHT22;12760;46.296;25.290;2022-10-28T05:39:37;8.10;99.90
24614;DHT22;12760;46.296;25.290;2022-10-28T05:42:03;8.10;99.90
24614;DHT22;12760;46.296;25.290;2022-10-28T05:44:28;8.10;99.90
24614;DHT22;12760;46.296;25.290;2022-10-28T05:46:54;8.20;99.90
24614;DHT22;12760;46.296;25.290;2022-10-28T05:49:21;8.10;99.90
24614;DHT22;12760;46.296;25.290;2022-10-28T05:51:47;8.20;99.90
24614;DHT22;12760;46.296;25.290;2022-10-28T05:54:13;8.20;99.90
24614;DHT22;12760;46.296;25.290;2022-10-28T05:56:38;8.30;99.90
24614;DHT22;12760;46.296;25.290;2022-10-28T05:59:04;8.30;99.90
24614;DHT22;12760;46.296;25.290;2022-10-28T06:01:30;8.30;99.90
24614;DHT22;12760;46.296;25.290;2022-10-28T06:03:56;8.30;99.90
24614;DHT22;12760;46.296;25.290;2022-10-28T06:06:21;8.30;99.90
24614;DHT22;12760;46.296;25.290;2022-10-28T06:08:47;8.30;99.90
24614;DHT22;12760;46.296;25.290;2022-10-28T06:11:13;8.30;99.90
24614;DHT22;12760;46.296;25.290;2022-10-28T06:13:38;8.30;99.90
24614;DHT22;12760;46.296;25.290;2022-10-28T06:16:04;8.30;99.90
24614;DHT22;12760;46.296;25.290;2022-10-28T06:18:30;8.30;99.90
24614;DHT22;12760;46.296;25.290;2022-10-28T06:20:57;8.30;99.90
24614;DHT22;12760;46.296;25.290;2022-10-28T06:23:24;8.40;99.90
24614;DHT22;12760;46.296;25.290;2022-10-28T06:25:54;8.40;99.90
24614;DHT22;12760;46.296;25.290;2022-10-28T06:28:20;8.40;99.90
24614;DHT22;12760;46.296;25.290;2022-10-28T06:30:46;8.50;99.90
24614;DHT22;12760;46.296;25.290;2022-10-28T06:33:11;8.50;99.90
24614;DHT22;12760;46.296;25.290;2022-10-28T06:35:37;8.60;99.90
24614;DHT22;12760;46.296;25.290;2022-10-28T06:38:03;8.70;99.90
24614;DHT22;12760;46.296;25.290;2022-10-28T06:40:28;8.80;99.90
24614;DHT22;12760;46.296;25.290;2022-10-28T06:42:58;9.00;99.90
24614;DHT22;12760;46.296;25.290;2022-10-28T06:45:24;9.10;99.90
24614;DHT22;12760;46.296;25.290;2022-10-28T06:47:54;9.20;99.90
24614;DHT22;12760;46.296;25.290;2022-10-28T06:50:20;9.40;99.90
24614;DHT22;12760;46.296;25.290;2022-10-28T06:52:46;9.60;99.90
24614;DHT22;12760;46.296;25.290;2022-10-28T06:55:11;9.70;99.90
24614;DHT22;12760;46.296;25.290;2022-10-28T06:57:37;9.90;99.90
24614;DHT22;12760;46.296;25.290;2022-10-28T07:00:04;10.10;99.90
24614;DHT22;12760;46.296;25.290;2022-10-28T07:02:29;10.20;99.90
24614;DHT22;12760;46.296;25.290;2022-10-28T07:04:55;10.40;99.90
24614;DHT22;12760;46.296;25.290;2022-10-28T07:07:21;10.60;99.90
24614;DHT22;12760;46.296;25.290;2022-10-28T07:09:46;10.70;99.90
24614;DHT22;12760;46.296;25.290;2022-10-28T07:12:12;10.80;99.90
24614;DHT22;12760;46.296;25.290;2022-10-28T07:14:38;10.90;99.90
24614;DHT22;12760;46.296;25.290;2022-10-28T07:17:04;11.00;99.90
24614;DHT22;12760;46.296;25.290;2022-10-28T07:19:29;11.10;99.90
24614;DHT22;12760;46.296;25.290;2022-10-28T07:21:55;11.30;99.90
24614;DHT22;12760;46.296;25.290;2022-10-28T07:24:21;11.50;99.90
24614;DHT22;12760;46.296;25.290;2022-10-28T07:26:47;11.50;99.90
24614;DHT22;12760;46.296;25.290;2022-10-28T07:29:17;11.60;99.90
24614;DHT22;12760;46.296;25.290;2022-10-28T07:31:43;11.70;99.90
24614;DHT22;12760;46.296;25.290;2022-10-28T07:34:09;11.80;99.90
24614;DHT22;12760;46.296;25.290;2022-10-28T07:36:34;11.80;99.90
24614;DHT22;12760;46.296;25.290;2022-10-28T07:39:00;11.90;99.90
24614;DHT22;12760;46.296;25.290;2022-10-28T07:41:26;12.10;99.90
24614;DHT22;12760;46.296;25.290;2022-10-28T07:43:52;12.20;99.90
24614;DHT22;12760;46.296;25.290;2022-10-28T07:46:18;12.30;99.90
24614;DHT22;12760;46.296;25.290;2022-10-28T07:48:44;12.50;99.90
24614;DHT22;12760;46.296;25.290;2022-10-28T07:51:12;12.60;99.90
24614;DHT22;12760;46.296;25.290;2022-10-28T07:53:38;12.80;99.90
24614;DHT22;12760;46.296;25.290;2022-10-28T07:56:06;13.00;99.90
24614;DHT22;12760;46.296;25.290;2022-10-28T07:58:38;13.10;99.90
24614;DHT22;12760;46.296;25.290;2022-10-28T08:01:06;13.30;99.90
24614;DHT22;12760;46.296;25.290;2022-10-28T08:03:33;13.40;99.90
24614;DHT22;12760;46.296;25.290;2022-10-28T08:06:04;13.50;99.90
24614;DHT22;12760;46.296;25.290;2022-10-28T08:08:31;13.70;99.90
24614;DHT22;12760;46.296;25.290;2022-10-28T08:10:56;13.80;99.90
24614;DHT22;12760;46.296;25.290;2022-10-28T08:13:22;13.90;99.90
24614;DHT22;12760;46.296;25.290;2022-10-28T08:15:52;14.00;99.90
24614;DHT22;12760;46.296;25.290;2022-10-28T08:18:18;14.10;99.90
24614;DHT22;12760;46.296;25.290;2022-10-28T08:20:44;14.10;99.90
24614;DHT22;12760;46.296;25.290;2022-10-28T08:23:09;14.20;99.90
24614;DHT22;12760;46.296;25.290;2022-10-28T08:25:36;14.30;99.90
24614;DHT22;12760;46.296;25.290;2022-10-28T08:28:01;14.30;99.90
24614;DHT22;12760;46.296;25.290;2022-10-28T08:30:27;14.50;99.90
24614;DHT22;12760;46.296;25.290;2022-10-28T08:32:56;14.70;99.90
24614;DHT22;12760;46.296;25.290;2022-10-28T08:35:21;14.80;99.90
24614;DHT22;12760;46.296;25.290;2022-10-28T08:37:51;14.90;99.90
24614;DHT22;12760;46.296;25.290;2022-10-28T08:40:18;15.00;99.90
24614;DHT22;12760;46.296;25.290;2022-10-28T08:42:48;15.10;99.90
24614;DHT22;12760;46.296;25.290;2022-10-28T08:45:22;15.20;99.90
24614;DHT22;12760;46.296;25.290;2022-10-28T08:50:31;15.40;99.90
24614;DHT22;12760;46.296;25.290;2022-10-28T08:53:35;15.50;99.90
24614;DHT22;12760;46.296;25.290;2022-10-28T08:58:50;15.70;99.90
24614;DHT22;12760;46.296;25.290;2022-10-28T09:01:45;15.60;99.90
24614;DHT22;12760;46.296;25.290;2022-10-28T09:04:36;15.70;99.90
24614;DHT22;12760;46.296;25.290;2022-10-28T09:07:04;15.90;99.90
24614;DHT22;12760;46.296;25.290;2022-10-28T09:09:30;15.90;99.90
24614;DHT22;12760;46.296;25.290;2022-10-28T09:23:31;16.40;99.90
24614;DHT22;12760;46.296;25.290;2022-10-28T09:29:07;16.50;99.90
24614;DHT22;12760;46.296;25.290;2022-10-28T09:31:51;16.70;99.90
24614;DHT22;12760;46.296;25.290;2022-10-28T09:39:38;16.70;99.90
24614;DHT22;12760;46.296;25.290;2022-10-28T09:42:07;16.90;99.90
24614;DHT22;12760;46.296;25.290;2022-10-28T09:44:55;17.00;99.90
24614;DHT22;12760;46.296;25.290;2022-10-28T09:47:28;17.10;99.90
24614;DHT22;12760;46.296;25.290;2022-10-28T09:49:58;17.10;99.90
24614;DHT22;12760;46.296;25.290;2022-10-28T09:52:34;17.20;99.90
24614;DHT22;12760;46.296;25.290;2022-10-28T09:55:07;17.30;99.90
24614;DHT22;12760;46.296;25.290;2022-10-28T09:57:39;17.40;99.90
24614;DHT22;12760;46.296;25.290;2022-10-28T10:00:06;17.40;99.90
24614;DHT22;12760;46.296;25.290;2022-10-28T10:02:32;17.30;99.90
24614;DHT22;12760;46.296;25.290;2022-10-28T10:05:01;17.30;99.90
24614;DHT22;12760;46.296;25.290;2022-10-28T10:07:39;17.30;99.90
24614;DHT22;12760;46.296;25.290;2022-10-28T10:12:51;17.40;99.90
24614;DHT22;12760;46.296;25.290;2022-10-28T10:15:43;17.50;99.90
24614;DHT22;12760;46.296;25.290;2022-10-28T10:18:20;17.60;99.90
24614;DHT22;12760;46.296;25.290;2022-10-28T10:20:55;17.70;99.90
24614;DHT22;12760;46.296;25.290;2022-10-28T10:23:27;17.70;99.90
24614;DHT22;12760;46.296;25.290;2022-10-28T10:25:56;17.70;99.90
24614;DHT22;12760;46.296;25.290;2022-10-28T10:28:22;17.70;99.90
24614;DHT22;12760;46.296;25.290;2022-10-28T10:30:59;17.80;99.90
24614;DHT22;12760;46.296;25.290;2022-10-28T10:33:30;17.80;99.90
24614;DHT22;12760;46.296;25.290;2022-10-28T10:36:00;17.80;99.90
24614;DHT22;12760;46.296;25.290;2022-10-28T10:38:27;17.90;99.90
24614;DHT22;12760;46.296;25.290;2022-10-28T10:40:53;17.90;99.90
24614;DHT22;12760;46.296;25.290;2022-10-28T10:43:28;17.90;99.90
24614;DHT22;12760;46.296;25.290;2022-10-28T10:48:23;17.90;99.90
24614;DHT22;12760;46.296;25.290;2022-10-28T10:50:49;17.90;99.90
24614;DHT22;12760;46.296;25.290;2022-10-28T10:53:28;17.90;99.90
24614;DHT22;12760;46.296;25.290;2022-10-28T10:56:03;18.00;99.90
24614;DHT22;12760;46.296;25.290;2022-10-28T10:58:38;18.00;99.90
24614;DHT22;12760;46.296;25.290;2022-10-28T11:01:05;18.10;99.90
24614;DHT22;12760;46.296;25.290;2022-10-28T11:03:57;18.20;99.90
24614;DHT22;12760;46.296;25.290;2022-10-28T11:06:27;18.30;99.90
24614;DHT22;12760;46.296;25.290;2022-10-28T11:09:03;18.30;99.90
24614;DHT22;12760;46.296;25.290;2022-10-28T11:11:36;18.30;99.90
24614;DHT22;12760;46.296;25.290;2022-10-28T11:14:23;18.30;99.90
24614;DHT22;12760;46.296;25.290;2022-10-28T11:19:21;18.40;99.90
24614;DHT22;12760;46.296;25.290;2022-10-28T11:39:20;18.70;99.90
24614;DHT22;12760;46.296;25.290;2022-10-28T11:42:00;18.70;99.90
24614;DHT22;12760;46.296;25.290;2022-10-28T11:53:18;18.90;99.90
24614;DHT22;12760;46.296;25.290;2022-10-28T11:55:57;18.90;99.90
24614;DHT22;12760;46.296;25.290;2022-10-28T11:58:52;19.00;99.90
24614;DHT22;12760;46.296;25.290;2022-10-28T12:09:11;18.90;99.90
24614;DHT22;12760;46.296;25.290;2022-10-28T12:15:25;18.80;99.90
24614;DHT22;12760;46.296;25.290;2022-10-28T12:21:01;18.80;99.90
24614;DHT22;12760;46.296;25.290;2022-10-28T12:23:28;18.90;99.90
24614;DHT22;12760;46.296;25.290;2022-10-28T12:25:57;18.80;99.90
24614;DHT22;12760;46.296;25.290;2022-10-28T12:28:28;18.80;99.90
24614;DHT22;12760;46.296;25.290;2022-10-28T12:30:56;18.80;99.90
24614;DHT22;12760;46.296;25.290;2022-10-28T12:33:41;18.80;99.90
24614;DHT22;12760;46.296;25.290;2022-10-28T12:38:55;18.80;99.90
24614;DHT22;12760;46.296;25.290;2022-10-28T12:44:06;18.70;99.90
24614;DHT22;12760;46.296;25.290;2022-10-28T12:46:46;18.70;99.90
24614;DHT22;12760;46.296;25.290;2022-10-28T12:52:30;18.70;99.90
24614;DHT22;12760;46.296;25.290;2022-10-28T12:55:06;18.70;99.90
24614;DHT22;12760;46.296;25.290;2022-10-28T12:57:43;18.60;99.90
24614;DHT22;12760;46.296;25.290;2022-10-28T13:03:09;18.60;99.90
24614;DHT22;12760;46.296;25.290;2022-10-28T13:22:23;18.60;99.90
24614;DHT22;12760;46.296;25.290;2022-10-28T13:27:38;18.60;99.90
24614;DHT22;12760;46.296;25.290;2022-10-28T13:30:04;18.60;99.90
24614;DHT22;12760;46.296;25.290;2022-10-28T13:32:35;18.60;99.90
24614;DHT22;12760;46.296;25.290;2022-10-28T13:37:37;18.60;99.90
24614;DHT22;12760;46.296;25.290;2022-10-28T13:40:05;18.50;99.90
24614;DHT22;12760;46.296;25.290;2022-10-28T13:42:44;18.50;99.90
24614;DHT22;12760;46.296;25.290;2022-10-28T13:58:54;18.30;99.90
24614;DHT22;12760;46.296;25.290;2022-10-28T14:04:23;18.40;99.90
24614;DHT22;12760;46.296;25.290;2022-10-28T14:06:52;18.40;99.90
24614;DHT22;12760;46.296;25.290;2022-10-28T14:09:29;18.30;99.90
24614;DHT22;12760;46.296;25.290;2022-10-28T14:12:21;18.30;99.90
24614;DHT22;12760;46.296;25.290;2022-10-28T14:15:04;18.30;99.90
24614;DHT22;12760;46.296;25.290;2022-10-28T14:17:37;18.40;99.90
24614;DHT22;12760;46.296;25.290;2022-10-28T14:20:18;18.30;99.90
24614;DHT22;12760;46.296;25.290;2022-10-28T14:22:46;18.30;99.90
24614;DHT22;12760;46.296;25.290;2022-10-28T14:39:09;18.10;99.90
24614;DHT22;12760;46.296;25.290;2022-10-28T14:49:30;17.90;99.90
24614;DHT22;12760;46.296;25.290;2022-10-28T14:52:02;17.80;99.90
24614;DHT22;12760;46.296;25.290;2022-10-28T14:54:50;17.70;99.90
24614;DHT22;12760;46.296;25.290;2022-10-28T14:57:16;17.70;99.90
24614;DHT22;12760;46.296;25.290;2022-10-28T14:59:48;17.60;99.90
24614;DHT22;12760;46.296;25.290;2022-10-28T15:02:23;17.50;99.90
24614;DHT22;12760;46.296;25.290;2022-10-28T15:05:12;17.40;99.90
24614;DHT22;12760;46.296;25.290;2022-10-28T15:07:39;17.40;99.90
24614;DHT22;12760;46.296;25.290;2022-10-28T15:10:25;17.30;99.90
24614;DHT22;12760;46.296;25.290;2022-10-28T15:12:53;17.20;99.90
24614;DHT22;12760;46.296;25.290;2022-10-28T15:15:30;17.00;99.90
24614;DHT22;12760;46.296;25.290;2022-10-28T15:17:57;17.00;99.90
24614;DHT22;12760;46.296;25.290;2022-10-28T15:20:34;16.90;99.90
24614;DHT22;12760;46.296;25.290;2022-10-28T15:23:16;16.90;99.90
24614;DHT22;12760;46.296;25.290;2022-10-28T15:25:42;16.80;99.90
24614;DHT22;12760;46.296;25.290;2022-10-28T15:28:12;16.70;99.90
24614;DHT22;12760;46.296;25.290;2022-10-28T15:30:40;16.60;99.90
24614;DHT22;12760;46.296;25.290;2022-10-28T15:33:28;16.50;99.90
24614;DHT22;12760;46.296;25.290;2022-10-28T15:36:15;16.40;99.90
24614;DHT22;12760;46.296;25.290;2022-10-28T15:38:42;16.30;99.90
24614;DHT22;12760;46.296;25.290;2022-10-28T15:43:54;16.10;99.90
24614;DHT22;12760;46.296;25.290;2022-10-28T15:46:22;16.00;99.90
24614;DHT22;12760;46.296;25.290;2022-10-28T15:48:52;15.90;99.90
24614;DHT22;12760;46.296;25.290;2022-10-28T15:51:19;15.90;99.90
24614;DHT22;12760;46.296;25.290;2022-10-28T15:53:45;15.80;99.90
24614;DHT22;12760;46.296;25.290;2022-10-28T15:56:25;15.80;99.90
24614;DHT22;12760;46.296;25.290;2022-10-28T16:01:39;15.80;99.90
24614;DHT22;12760;46.296;25.290;2022-10-28T16:06:55;15.60;99.90
24614;DHT22;12760;46.296;25.290;2022-10-28T16:09:47;15.40;99.90
24614;DHT22;12760;46.296;25.290;2022-10-28T16:12:22;15.40;99.90
24614;DHT22;12760;46.296;25.290;2022-10-28T16:14:56;15.40;99.90
24614;DHT22;12760;46.296;25.290;2022-10-28T16:17:32;15.30;99.90
24614;DHT22;12760;46.296;25.290;2022-10-28T16:20:19;15.20;99.90
24614;DHT22;12760;46.296;25.290;2022-10-28T16:22:46;15.20;99.90
24614;DHT22;12760;46.296;25.290;2022-10-28T16:25:20;15.10;99.90
24614;DHT22;12760;46.296;25.290;2022-10-28T16:27:49;15.10;99.90
24614;DHT22;12760;46.296;25.290;2022-10-28T16:30:16;15.00;99.90
24614;DHT22;12760;46.296;25.290;2022-10-28T16:32:43;14.90;99.90
24614;DHT22;12760;46.296;25.290;2022-10-28T16:35:20;14.80;99.90
24614;DHT22;12760;46.296;25.290;2022-10-28T16:37:47;14.80;99.90
24614;DHT22;12760;46.296;25.290;2022-10-28T16:40:13;14.70;99.90
24614;DHT22;12760;46.296;25.290;2022-10-28T16:42:39;14.70;99.90
24614;DHT22;12760;46.296;25.290;2022-10-28T16:45:16;14.60;99.90
24614;DHT22;12760;46.296;25.290;2022-10-28T16:47:43;14.60;99.90
24614;DHT22;12760;46.296;25.290;2022-10-28T16:50:09;14.60;99.90
24614;DHT22;12760;46.296;25.290;2022-10-28T16:52:35;14.60;99.90
24614;DHT22;12760;46.296;25.290;2022-10-28T16:55:01;14.60;99.90
24614;DHT22;12760;46.296;25.290;2022-10-28T16:57:27;14.50;99.90
24614;DHT22;12760;46.296;25.290;2022-10-28T16:59:53;14.50;99.90
24614;DHT22;12760;46.296;25.290;2022-10-28T17:04:53;14.40;99.90
24614;DHT22;12760;46.296;25.290;2022-10-28T17:07:19;14.20;99.90
24614;DHT22;12760;46.296;25.290;2022-10-28T17:09:44;14.20;99.90
24614;DHT22;12760;46.296;25.290;2022-10-28T17:12:15;14.20;99.90
24614;DHT22;12760;46.296;25.290;2022-10-28T17:14:41;14.20;99.90
24614;DHT22;12760;46.296;25.290;2022-10-28T17:17:08;14.20;99.90
24614;DHT22;12760;46.296;25.290;2022-10-28T17:19:35;14.20;99.90
24614;DHT22;12760;46.296;25.290;2022-10-28T17:22:01;14.10;99.90
24614;DHT22;12760;46.296;25.290;2022-10-28T17:24:26;14.10;99.90
24614;DHT22;12760;46.296;25.290;2022-10-28T17:26:52;14.00;99.90
24614;DHT22;12760;46.296;25.290;2022-10-28T17:29:18;14.00;99.90
24614;DHT22;12760;46.296;25.290;2022-10-28T17:31:43;13.90;99.90
24614;DHT22;12760;46.296;25.290;2022-10-28T17:34:10;13.90;99.90
24614;DHT22;12760;46.296;25.290;2022-10-28T17:36:36;13.90;99.90
24614;DHT22;12760;46.296;25.290;2022-10-28T17:39:02;13.80;99.90
24614;DHT22;12760;46.296;25.290;2022-10-28T17:41:28;13.80;99.90
24614;DHT22;12760;46.296;25.290;2022-10-28T17:43:54;13.70;99.90
24614;DHT22;12760;46.296;25.290;2022-10-28T17:46:20;13.60;99.90
24614;DHT22;12760;46.296;25.290;2022-10-28T17:48:46;13.60;99.90
24614;DHT22;12760;46.296;25.290;2022-10-28T17:51:12;13.60;99.90
24614;DHT22;12760;46.296;25.290;2022-10-28T17:53:38;13.50;99.90
24614;DHT22;12760;46.296;25.290;2022-10-28T17:56:05;13.40;99.90
24614;DHT22;12760;46.296;25.290;2022-10-28T17:58:31;13.20;99.90
24614;DHT22;12760;46.296;25.290;2022-10-28T18:00:59;13.10;99.90
24614;DHT22;12760;46.296;25.290;2022-10-28T18:03:29;13.10;99.90
24614;DHT22;12760;46.296;25.290;2022-10-28T18:05:55;13.00;99.90
24614;DHT22;12760;46.296;25.290;2022-10-28T18:08:21;12.90;99.90
24614;DHT22;12760;46.296;25.290;2022-10-28T18:10:55;13.00;99.90
24614;DHT22;12760;46.296;25.290;2022-10-28T18:13:29;13.00;99.90
24614;DHT22;12760;46.296;25.290;2022-10-28T18:15:57;13.00;99.90
24614;DHT22;12760;46.296;25.290;2022-10-28T18:18:27;12.90;99.90
24614;DHT22;12760;46.296;25.290;2022-10-28T18:20:55;12.90;99.90
24614;DHT22;12760;46.296;25.290;2022-10-28T18:23:21;12.90;99.90
24614;DHT22;12760;46.296;25.290;2022-10-28T18:26:02;12.90;99.90
24614;DHT22;12760;46.296;25.290;2022-10-28T18:28:32;12.80;99.90
24614;DHT22;12760;46.296;25.290;2022-10-28T18:33:32;12.70;99.90
24614;DHT22;12760;46.296;25.290;2022-10-28T18:36:06;12.60;99.90
24614;DHT22;12760;46.296;25.290;2022-10-28T18:38:33;12.60;99.90
24614;DHT22;12760;46.296;25.290;2022-10-28T18:40:59;12.60;99.90
24614;DHT22;12760;46.296;25.290;2022-10-28T18:43:25;12.60;99.90
24614;DHT22;12760;46.296;25.290;2022-10-28T18:45:51;12.60;99.90
24614;DHT22;12760;46.296;25.290;2022-10-28T18:48:17;12.60;99.90
24614;DHT22;12760;46.296;25.290;2022-10-28T18:50:42;12.50;99.90
24614;DHT22;12760;46.296;25.290;2022-10-28T18:53:09;12.40;99.90